USSS

Koltsovo Airport

Yekaterinburg, Russian Federation
TAF AMD USSS 210841Z 2109/2209 26007MPS 9999 BKN020CB TEMPO 2109/2121 VRB18MPS -TSRA SQ BKN011CB BECMG 2121/2122 6000 -SHRA BKN015CB
Issued Valid From Valid To
Jun-21 @ 08:41 UTC
(an hour ago)
Jun-21 @ 09:00 UTC
(an hour ago)
Jun-22 @ 09:00 UTC
(in 23 hours)
Jun-21 @ 09:00 to Jun-21 @ 21:00
TAF AMD USSS 210841Z 2109/2209 26007MPS 9999 BKN020CB
Wind Visibility Clouds
260° at 14 knots 10,000+ meters
  • Broken at 2,000' AGL
Temporary Jun-21 @ 09:00 to Jun-21 @ 21:00
TEMPO 2109/2121 VRB18MPS -TSRA SQ BKN011CB
Wind Clouds Conditions
Variable at 35 knots
  • Broken at 1,100' AGL
  • Light Thunderstorm
  • Light Rain
  • Squalls
Becoming Jun-21 @ 21:00 to Jun-22 @ 09:00
BECMG 2121/2122 6000 -SHRA BKN015CB
Wind Visibility Clouds Conditions
260° at 14 knots 6,003 meters
  • Broken at 1,500' AGL
  • Light Rain
TAF AMD USSS 210841Z 2109/2209 26007MPS 9999 BKN020CB TEMPO 2109/2121 VRB18MPS -TSRA SQ BKN011CB BECMG 2121/2122 6000 -SHRA BKN015CB
Issued Jun-21 @ 08:41 UTC
(an hour ago)
Valid From Jun-21 @ 09:00 UTC
(an hour ago)
Valid To Jun-22 @ 09:00 UTC
(in 23 hours)
Jun-21 @ 09:00 - Jun-21 @ 21:00
Wind Visibility
260° at 14 knots 10,000+ meters
Clouds
  • Broken at 2,000' AGL
Temporary Jun-21 @ 09:00 - Jun-21 @ 21:00
Wind
Variable at 35 knots
Clouds
  • Broken at 1,100' AGL
Conditions
  • Light Thunderstorm
  • Light Rain
  • Squalls
Becoming Jun-21 @ 21:00 - Jun-22 @ 09:00
Wind Visibility
260° at 14 knots 6,003 meters
Clouds
  • Broken at 1,500' AGL
Conditions
  • Light Rain